sensor_id;sensor_type;location;lat;lon;timestamp;pressure;altitude;pressure_sealevel;temperature;humidity
69796;BME280;57073;45.650;9.612;2023-04-28T00:04:00;99554.38;;;14.03;44.21
69796;BME280;57073;45.650;9.612;2023-04-28T00:09:00;99552.69;;;13.97;44.32
69796;BME280;57073;45.650;9.612;2023-04-28T00:14:01;99538.91;;;13.82;44.77
69796;BME280;57073;45.650;9.612;2023-04-28T00:19:01;99536.59;;;13.68;45.88
69796;BME280;57073;45.650;9.612;2023-04-28T00:24:01;99531.03;;;13.58;46.39
69796;BME280;57073;45.650;9.612;2023-04-28T00:29:02;99531.47;;;13.50;46.64
69796;BME280;57073;45.650;9.612;2023-04-28T00:34:02;99536.34;;;13.31;47.07
69796;BME280;57073;45.650;9.612;2023-04-28T00:39:03;99526.91;;;13.17;47.34
69796;BME280;57073;45.650;9.612;2023-04-28T00:44:03;99533.75;;;13.19;47.01
69796;BME280;57073;45.650;9.612;2023-04-28T00:49:03;99529.47;;;13.23;46.76
69796;BME280;57073;45.650;9.612;2023-04-28T00:54:05;99522.75;;;13.09;47.64
69796;BME280;57073;45.650;9.612;2023-04-28T00:59:05;99523.22;;;13.06;47.52
69796;BME280;57073;45.650;9.612;2023-04-28T01:04:05;99509.66;;;13.01;47.61
69796;BME280;57073;45.650;9.612;2023-04-28T01:09:06;99507.50;;;13.03;47.50
69796;BME280;57073;45.650;9.612;2023-04-28T01:14:06;99524.81;;;13.02;47.49
69796;BME280;57073;45.650;9.612;2023-04-28T01:19:07;99525.06;;;13.00;47.38
69796;BME280;57073;45.650;9.612;2023-04-28T01:24:12;99505.63;;;13.03;47.47
69796;BME280;57073;45.650;9.612;2023-04-28T01:29:12;99504.41;;;12.94;47.99
69796;BME280;57073;45.650;9.612;2023-04-28T01:34:13;99510.88;;;12.93;47.35
69796;BME280;57073;45.650;9.612;2023-04-28T01:39:13;99516.34;;;12.98;47.39
69796;BME280;57073;45.650;9.612;2023-04-28T01:44:14;99519.97;;;12.70;48.92
69796;BME280;57073;45.650;9.612;2023-04-28T01:49:14;99522.66;;;12.70;49.06
69796;BME280;57073;45.650;9.612;2023-04-28T01:54:15;99524.03;;;12.56;49.31
69796;BME280;57073;45.650;9.612;2023-04-28T01:59:15;99525.66;;;12.57;49.16
69796;BME280;57073;45.650;9.612;2023-04-28T02:04:15;99519.50;;;12.44;50.04
69796;BME280;57073;45.650;9.612;2023-04-28T02:09:16;99526.69;;;12.39;49.77
69796;BME280;57073;45.650;9.612;2023-04-28T02:14:16;99529.41;;;12.39;49.21
69796;BME280;57073;45.650;9.612;2023-04-28T02:19:17;99541.88;;;12.40;48.85
69796;BME280;57073;45.650;9.612;2023-04-28T02:24:17;99537.19;;;12.35;49.51
69796;BME280;57073;45.650;9.612;2023-04-28T02:29:17;99542.91;;;12.22;49.60
69796;BME280;57073;45.650;9.612;2023-04-28T02:34:18;99524.28;;;12.08;50.21
69796;BME280;57073;45.650;9.612;2023-04-28T02:39:19;99528.91;;;12.25;49.51
69796;BME280;57073;45.650;9.612;2023-04-28T02:44:21;99538.69;;;12.14;49.34
69796;BME280;57073;45.650;9.612;2023-04-28T02:49:21;99541.00;;;12.22;49.41
69796;BME280;57073;45.650;9.612;2023-04-28T02:54:21;99545.63;;;12.10;49.82
69796;BME280;57073;45.650;9.612;2023-04-28T02:59:28;99532.50;;;12.02;50.18
69796;BME280;57073;45.650;9.612;2023-04-28T03:04:28;99528.16;;;12.01;50.31
69796;BME280;57073;45.650;9.612;2023-04-28T03:09:29;99503.56;;;12.14;49.43
69796;BME280;57073;45.650;9.612;2023-04-28T03:14:29;99492.16;;;12.12;48.68
69796;BME280;57073;45.650;9.612;2023-04-28T03:19:30;99481.69;;;12.16;47.66
69796;BME280;57073;45.650;9.612;2023-04-28T03:24:32;99489.47;;;12.12;48.08
69796;BME280;57073;45.650;9.612;2023-04-28T03:29:32;99509.88;;;12.20;48.69
69796;BME280;57073;45.650;9.612;2023-04-28T03:34:32;99517.56;;;12.28;47.91
69796;BME280;57073;45.650;9.612;2023-04-28T03:39:33;99517.78;;;12.09;49.48
69796;BME280;57073;45.650;9.612;2023-04-28T03:44:33;99523.44;;;12.08;48.74
69796;BME280;57073;45.650;9.612;2023-04-28T03:49:33;99530.63;;;12.02;49.91
69796;BME280;57073;45.650;9.612;2023-04-28T03:54:34;99537.00;;;11.96;49.09
69796;BME280;57073;45.650;9.612;2023-04-28T03:59:34;99547.81;;;11.96;49.03
69796;BME280;57073;45.650;9.612;2023-04-28T04:04:35;99539.59;;;11.91;49.61
69796;BME280;57073;45.650;9.612;2023-04-28T04:09:35;99527.47;;;11.93;49.21
69796;BME280;57073;45.650;9.612;2023-04-28T04:14:35;99509.63;;;11.92;49.65
69796;BME280;57073;45.650;9.612;2023-04-28T04:19:36;99509.00;;;12.02;48.89
69796;BME280;57073;45.650;9.612;2023-04-28T04:24:37;99508.53;;;12.05;48.68
69796;BME280;57073;45.650;9.612;2023-04-28T04:29:37;99513.53;;;12.13;48.87
69796;BME280;57073;45.650;9.612;2023-04-28T04:34:37;99513.63;;;12.19;49.09
69796;BME280;57073;45.650;9.612;2023-04-28T04:39:38;99504.28;;;12.09;49.46
69796;BME280;57073;45.650;9.612;2023-04-28T04:44:38;99505.59;;;12.07;48.99
69796;BME280;57073;45.650;9.612;2023-04-28T04:49:39;99507.16;;;12.20;48.68
69796;BME280;57073;45.650;9.612;2023-04-28T04:54:39;99517.81;;;12.26;48.97
69796;BME280;57073;45.650;9.612;2023-04-28T04:59:40;99524.41;;;12.30;48.67
69796;BME280;57073;45.650;9.612;2023-04-28T05:04:40;99532.53;;;12.47;47.97
69796;BME280;57073;45.650;9.612;2023-04-28T05:09:40;99530.41;;;12.49;47.84
69796;BME280;57073;45.650;9.612;2023-04-28T05:14:41;99540.06;;;12.45;48.42
69796;BME280;57073;45.650;9.612;2023-04-28T05:19:41;99543.78;;;12.56;47.86
69796;BME280;57073;45.650;9.612;2023-04-28T05:24:41;99554.03;;;12.71;47.52
69796;BME280;57073;45.650;9.612;2023-04-28T05:29:42;99564.28;;;12.69;47.15
69796;BME280;57073;45.650;9.612;2023-04-28T05:34:42;99569.59;;;12.93;47.34
69796;BME280;57073;45.650;9.612;2023-04-28T05:39:43;99574.81;;;12.82;47.17
69796;BME280;57073;45.650;9.612;2023-04-28T05:44:43;99581.97;;;13.05;47.19
69796;BME280;57073;45.650;9.612;2023-04-28T05:49:43;99585.50;;;13.06;47.36
69796;BME280;57073;45.650;9.612;2023-04-28T05:54:44;99586.81;;;13.20;46.61
69796;BME280;57073;45.650;9.612;2023-04-28T05:59:44;99575.25;;;13.25;46.50
69796;BME280;57073;45.650;9.612;2023-04-28T06:04:44;99578.84;;;13.31;46.74
69796;BME280;57073;45.650;9.612;2023-04-28T06:09:45;99583.44;;;13.47;46.59
69796;BME280;57073;45.650;9.612;2023-04-28T06:14:45;99577.00;;;13.53;46.09
69796;BME280;57073;45.650;9.612;2023-04-28T06:19:46;99586.47;;;13.51;46.30
69796;BME280;57073;45.650;9.612;2023-04-28T06:24:46;99586.75;;;13.71;45.66
69796;BME280;57073;45.650;9.612;2023-04-28T06:29:47;99595.75;;;13.77;44.88
69796;BME280;57073;45.650;9.612;2023-04-28T06:34:47;99605.00;;;13.98;44.66
69796;BME280;57073;45.650;9.612;2023-04-28T06:39:47;99599.66;;;14.03;45.79
69796;BME280;57073;45.650;9.612;2023-04-28T06:44:48;99599.72;;;14.08;45.41
69796;BME280;57073;45.650;9.612;2023-04-28T06:49:48;99592.47;;;14.14;44.71
69796;BME280;57073;45.650;9.612;2023-04-28T06:54:49;99586.91;;;14.25;44.72
69796;BME280;57073;45.650;9.612;2023-04-28T06:59:50;99596.22;;;14.62;43.60
69796;BME280;57073;45.650;9.612;2023-04-28T07:04:50;99593.63;;;14.72;43.37
69796;BME280;57073;45.650;9.612;2023-04-28T07:09:51;99589.59;;;14.75;43.05
69796;BME280;57073;45.650;9.612;2023-04-28T07:14:52;99581.56;;;14.58;41.81
69796;BME280;57073;45.650;9.612;2023-04-28T07:19:52;99579.19;;;14.94;41.72
69796;BME280;57073;45.650;9.612;2023-04-28T07:24:53;99579.91;;;15.16;42.68
69796;BME280;57073;45.650;9.612;2023-04-28T07:29:53;99573.97;;;15.62;42.14
69796;BME280;57073;45.650;9.612;2023-04-28T07:34:53;99585.50;;;16.48;42.84
69796;BME280;57073;45.650;9.612;2023-04-28T07:39:55;99581.97;;;16.68;41.54
69796;BME280;57073;45.650;9.612;2023-04-28T07:44:55;99579.25;;;16.68;39.86
69796;BME280;57073;45.650;9.612;2023-04-28T07:49:57;99586.13;;;17.11;39.59
69796;BME280;57073;45.650;9.612;2023-04-28T07:54:59;99589.13;;;17.30;38.84
69796;BME280;57073;45.650;9.612;2023-04-28T08:00:01;99594.25;;;17.53;39.32
69796;BME280;57073;45.650;9.612;2023-04-28T08:05:02;99593.69;;;17.76;37.58
69796;BME280;57073;45.650;9.612;2023-04-28T08:10:03;99590.38;;;17.84;37.41
69796;BME280;57073;45.650;9.612;2023-04-28T08:15:04;99567.25;;;17.56;34.68
69796;BME280;57073;45.650;9.612;2023-04-28T08:20:05;99568.91;;;17.67;31.87
69796;BME280;57073;45.650;9.612;2023-04-28T08:25:06;99580.09;;;17.61;31.90
69796;BME280;57073;45.650;9.612;2023-04-28T08:30:07;99585.50;;;17.76;32.11
69796;BME280;57073;45.650;9.612;2023-04-28T08:35:08;99577.34;;;17.61;30.80
69796;BME280;57073;45.650;9.612;2023-04-28T08:40:09;99577.84;;;17.78;31.90
69796;BME280;57073;45.650;9.612;2023-04-28T08:45:12;99578.03;;;17.97;32.50
69796;BME280;57073;45.650;9.612;2023-04-28T08:50:13;99569.41;;;17.75;29.14
69796;BME280;57073;45.650;9.612;2023-04-28T08:55:13;99583.16;;;18.19;28.17
69796;BME280;57073;45.650;9.612;2023-04-28T09:00:16;99577.94;;;18.73;29.54
69796;BME280;57073;45.650;9.612;2023-04-28T09:05:16;99568.47;;;18.99;29.71
69796;BME280;57073;45.650;9.612;2023-04-28T09:10:24;99573.22;;;19.18;29.67
69796;BME280;57073;45.650;9.612;2023-04-28T09:15:38;99561.56;;;18.73;27.35
69796;BME280;57073;45.650;9.612;2023-04-28T09:20:41;99563.00;;;18.99;27.39
69796;BME280;57073;45.650;9.612;2023-04-28T09:26:05;99562.84;;;19.15;28.26
69796;BME280;57073;45.650;9.612;2023-04-28T09:31:21;99550.78;;;19.21;29.27
69796;BME280;57073;45.650;9.612;2023-04-28T09:36:27;99563.28;;;19.56;29.55
69796;BME280;57073;45.650;9.612;2023-04-28T09:41:37;99548.84;;;19.51;28.32
69796;BME280;57073;45.650;9.612;2023-04-28T09:46:39;99538.00;;;19.40;28.78
69796;BME280;57073;45.650;9.612;2023-04-28T09:51:40;99533.09;;;19.67;28.10
69796;BME280;57073;45.650;9.612;2023-04-28T09:56:43;99531.63;;;19.74;29.45
69796;BME280;57073;45.650;9.612;2023-04-28T10:01:46;99524.22;;;19.99;29.40
69796;BME280;57073;45.650;9.612;2023-04-28T10:06:48;99517.81;;;19.85;29.87
69796;BME280;57073;45.650;9.612;2023-04-28T10:11:49;99521.81;;;19.92;29.39
69796;BME280;57073;45.650;9.612;2023-04-28T10:16:50;99522.31;;;19.51;29.63
69796;BME280;57073;45.650;9.612;2023-04-28T10:27:28;99529.97;;;19.97;30.59
69796;BME280;57073;45.650;9.612;2023-04-28T10:32:30;99525.16;;;20.13;29.44
69796;BME280;57073;45.650;9.612;2023-04-28T10:38:13;99517.38;;;20.21;29.82
69796;BME280;57073;45.650;9.612;2023-04-28T10:59:23;99500.50;;;19.70;30.86
69796;BME280;57073;45.650;9.612;2023-04-28T11:04:07;99504.09;;;19.90;31.26
69796;BME280;57073;45.650;9.612;2023-04-28T11:19:23;99465.56;;;19.86;30.33
69796;BME280;57073;45.650;9.612;2023-04-28T11:24:24;99454.72;;;19.95;31.08
69796;BME280;57073;45.650;9.612;2023-04-28T11:29:35;99449.88;;;19.92;30.63
69796;BME280;57073;45.650;9.612;2023-04-28T11:34:36;99435.50;;;20.00;31.38
69796;BME280;57073;45.650;9.612;2023-04-28T11:39:37;99431.38;;;19.84;30.69
69796;BME280;57073;45.650;9.612;2023-04-28T11:44:37;99418.25;;;19.62;31.02
69796;BME280;57073;45.650;9.612;2023-04-28T11:49:44;99414.50;;;19.76;31.12
69796;BME280;57073;45.650;9.612;2023-04-28T11:54:54;99403.41;;;19.68;31.17
69796;BME280;57073;45.650;9.612;2023-04-28T12:00:14;99406.97;;;19.68;30.97
69796;BME280;57073;45.650;9.612;2023-04-28T12:05:20;99397.41;;;19.66;32.14
69796;BME280;57073;45.650;9.612;2023-04-28T12:10:21;99398.69;;;19.73;31.21
69796;BME280;57073;45.650;9.612;2023-04-28T12:15:21;99387.72;;;19.54;31.82
69796;BME280;57073;45.650;9.612;2023-04-28T12:20:35;99398.09;;;19.76;31.68
69796;BME280;57073;45.650;9.612;2023-04-28T12:25:45;99395.28;;;19.82;32.16
69796;BME280;57073;45.650;9.612;2023-04-28T12:30:46;99392.25;;;19.83;32.11
69796;BME280;57073;45.650;9.612;2023-04-28T12:35:47;99377.22;;;19.81;32.08
69796;BME280;57073;45.650;9.612;2023-04-28T12:40:48;99370.59;;;19.87;32.21
69796;BME280;57073;45.650;9.612;2023-04-28T12:45:50;99365.19;;;19.82;32.08
69796;BME280;57073;45.650;9.612;2023-04-28T12:50:52;99350.97;;;19.61;33.35
69796;BME280;57073;45.650;9.612;2023-04-28T12:55:52;99335.09;;;19.44;33.97
69796;BME280;57073;45.650;9.612;2023-04-28T13:00:53;99345.28;;;19.76;32.92
69796;BME280;57073;45.650;9.612;2023-04-28T13:05:53;99336.28;;;19.75;33.34
69796;BME280;57073;45.650;9.612;2023-04-28T13:10:53;99332.19;;;19.92;33.23
69796;BME280;57073;45.650;9.612;2023-04-28T13:15:54;99329.75;;;19.90;32.41
69796;BME280;57073;45.650;9.612;2023-04-28T13:20:54;99311.84;;;19.98;32.68
69796;BME280;57073;45.650;9.612;2023-04-28T13:25:54;99308.00;;;19.99;31.99
69796;BME280;57073;45.650;9.612;2023-04-28T13:30:55;99300.16;;;19.92;31.43
69796;BME280;57073;45.650;9.612;2023-04-28T13:35:59;99288.34;;;19.97;31.46
69796;BME280;57073;45.650;9.612;2023-04-28T13:40:59;99281.31;;;20.10;32.18
69796;BME280;57073;45.650;9.612;2023-04-28T13:46:00;99273.38;;;20.08;31.21
69796;BME280;57073;45.650;9.612;2023-04-28T13:51:04;99274.47;;;20.07;31.58
69796;BME280;57073;45.650;9.612;2023-04-28T13:56:05;99268.50;;;20.05;32.15
69796;BME280;57073;45.650;9.612;2023-04-28T14:01:06;99276.03;;;20.13;32.44
69796;BME280;57073;45.650;9.612;2023-04-28T14:06:06;99249.47;;;20.14;32.42
69796;BME280;57073;45.650;9.612;2023-04-28T14:11:07;99246.94;;;20.18;31.62
69796;BME280;57073;45.650;9.612;2023-04-28T14:16:08;99258.31;;;20.25;31.85
69796;BME280;57073;45.650;9.612;2023-04-28T14:21:08;99259.22;;;20.34;32.77
69796;BME280;57073;45.650;9.612;2023-04-28T14:26:10;99257.59;;;20.47;32.38
69796;BME280;57073;45.650;9.612;2023-04-28T14:31:11;99247.03;;;20.40;32.26
69796;BME280;57073;45.650;9.612;2023-04-28T14:36:11;99229.22;;;20.43;31.77
69796;BME280;57073;45.650;9.612;2023-04-28T14:41:11;99232.06;;;20.38;32.11
69796;BME280;57073;45.650;9.612;2023-04-28T14:46:12;99213.56;;;20.29;32.76
69796;BME280;57073;45.650;9.612;2023-04-28T14:51:12;99213.59;;;20.15;32.19
69796;BME280;57073;45.650;9.612;2023-04-28T14:56:12;99207.09;;;20.25;32.09
69796;BME280;57073;45.650;9.612;2023-04-28T15:01:13;99203.03;;;20.23;32.10
69796;BME280;57073;45.650;9.612;2023-04-28T15:06:13;99202.22;;;20.36;32.36
69796;BME280;57073;45.650;9.612;2023-04-28T15:11:13;99193.91;;;20.27;32.58
69796;BME280;57073;45.650;9.612;2023-04-28T15:16:14;99197.97;;;20.30;32.34
69796;BME280;57073;45.650;9.612;2023-04-28T15:21:15;99193.69;;;20.24;32.41
69796;BME280;57073;45.650;9.612;2023-04-28T15:26:15;99185.91;;;20.31;31.83
69796;BME280;57073;45.650;9.612;2023-04-28T15:31:15;99188.13;;;20.15;32.41
69796;BME280;57073;45.650;9.612;2023-04-28T15:36:16;99180.22;;;20.27;32.45
69796;BME280;57073;45.650;9.612;2023-04-28T15:41:18;99182.44;;;20.25;32.81
69796;BME280;57073;45.650;9.612;2023-04-28T15:46:19;99187.81;;;20.16;32.06
69796;BME280;57073;45.650;9.612;2023-04-28T15:51:21;99176.25;;;20.20;32.83
69796;BME280;57073;45.650;9.612;2023-04-28T15:56:21;99169.72;;;20.02;32.41
69796;BME280;57073;45.650;9.612;2023-04-28T16:01:22;99165.41;;;20.14;32.88
69796;BME280;57073;45.650;9.612;2023-04-28T16:06:23;99165.50;;;20.09;32.86
69796;BME280;57073;45.650;9.612;2023-04-28T16:11:24;99161.88;;;20.14;32.61
69796;BME280;57073;45.650;9.612;2023-04-28T16:16:26;99155.69;;;20.08;32.63
69796;BME280;57073;45.650;9.612;2023-04-28T16:21:27;99148.34;;;19.90;32.90
69796;BME280;57073;45.650;9.612;2023-04-28T16:26:27;99144.69;;;19.94;32.62
69796;BME280;57073;45.650;9.612;2023-04-28T16:31:28;99130.81;;;19.91;32.79
69796;BME280;57073;45.650;9.612;2023-04-28T16:36:31;99135.88;;;19.97;33.29
69796;BME280;57073;45.650;9.612;2023-04-28T16:41:31;99137.28;;;19.95;33.21
69796;BME280;57073;45.650;9.612;2023-04-28T16:46:32;99133.13;;;19.84;33.10
69796;BME280;57073;45.650;9.612;2023-04-28T16:51:34;99146.22;;;19.87;33.21
69796;BME280;57073;45.650;9.612;2023-04-28T16:56:34;99133.50;;;19.63;33.12
69796;BME280;57073;45.650;9.612;2023-04-28T17:01:38;99132.38;;;19.64;33.54
69796;BME280;57073;45.650;9.612;2023-04-28T17:06:38;99131.88;;;19.62;33.21
69796;BME280;57073;45.650;9.612;2023-04-28T17:11:39;99128.97;;;19.72;33.81
69796;BME280;57073;45.650;9.612;2023-04-28T17:16:39;99130.97;;;19.67;33.56
69796;BME280;57073;45.650;9.612;2023-04-28T17:21:40;99130.47;;;19.65;33.44
69796;BME280;57073;45.650;9.612;2023-04-28T17:26:40;99128.53;;;19.65;33.75
69796;BME280;57073;45.650;9.612;2023-04-28T17:31:41;99121.84;;;19.71;33.48
69796;BME280;57073;45.650;9.612;2023-04-28T17:36:41;99110.91;;;19.71;33.46
69796;BME280;57073;45.650;9.612;2023-04-28T17:41:42;99107.75;;;19.50;33.21
69796;BME280;57073;45.650;9.612;2023-04-28T17:46:42;99106.41;;;19.48;33.68
69796;BME280;57073;45.650;9.612;2023-04-28T17:51:42;99085.69;;;19.61;33.07
69796;BME280;57073;45.650;9.612;2023-04-28T17:56:43;99090.00;;;19.48;33.79
69796;BME280;57073;45.650;9.612;2023-04-28T18:01:43;99088.06;;;19.34;34.33
69796;BME280;57073;45.650;9.612;2023-04-28T18:06:43;99086.47;;;19.14;34.28
69796;BME280;57073;45.650;9.612;2023-04-28T18:11:44;99103.75;;;19.10;34.35
69796;BME280;57073;45.650;9.612;2023-04-28T18:16:44;99101.63;;;19.07;33.86
69796;BME280;57073;45.650;9.612;2023-04-28T18:21:45;99100.78;;;19.06;34.64
69796;BME280;57073;45.650;9.612;2023-04-28T18:26:46;99108.06;;;18.97;34.45
69796;BME280;57073;45.650;9.612;2023-04-28T18:31:46;99113.00;;;18.95;34.52
69796;BME280;57073;45.650;9.612;2023-04-28T18:36:46;99115.00;;;18.89;35.01
69796;BME280;57073;45.650;9.612;2023-04-28T18:41:47;99122.75;;;18.82;35.43
69796;BME280;57073;45.650;9.612;2023-04-28T18:46:47;99116.13;;;18.69;35.87
69796;BME280;57073;45.650;9.612;2023-04-28T18:51:47;99114.81;;;18.67;36.29
69796;BME280;57073;45.650;9.612;2023-04-28T18:56:57;99117.16;;;18.54;35.55
69796;BME280;57073;45.650;9.612;2023-04-28T19:01:57;99122.69;;;18.49;36.66
69796;BME280;57073;45.650;9.612;2023-04-28T19:06:57;99128.50;;;18.37;35.70
69796;BME280;57073;45.650;9.612;2023-04-28T19:11:58;99123.66;;;18.10;37.34
69796;BME280;57073;45.650;9.612;2023-04-28T19:16:58;99136.16;;;18.16;39.18
69796;BME280;57073;45.650;9.612;2023-04-28T19:21:59;99132.97;;;18.09;40.40
69796;BME280;57073;45.650;9.612;2023-04-28T19:26:59;99141.34;;;18.18;40.46
69796;BME280;57073;45.650;9.612;2023-04-28T19:32:00;99144.59;;;17.96;41.89
69796;BME280;57073;45.650;9.612;2023-04-28T19:37:01;99144.59;;;17.96;42.32
69796;BME280;57073;45.650;9.612;2023-04-28T19:42:03;99146.75;;;17.94;43.11
69796;BME280;57073;45.650;9.612;2023-04-28T19:47:03;99151.19;;;17.90;43.84
69796;BME280;57073;45.650;9.612;2023-04-28T19:52:04;99147.28;;;17.72;43.58
69796;BME280;57073;45.650;9.612;2023-04-28T19:57:05;99149.16;;;17.76;45.36
69796;BME280;57073;45.650;9.612;2023-04-28T20:02:05;99152.72;;;17.72;45.48
69796;BME280;57073;45.650;9.612;2023-04-28T20:07:07;99165.09;;;17.59;46.43
69796;BME280;57073;45.650;9.612;2023-04-28T20:12:08;99157.53;;;17.51;46.59
69796;BME280;57073;45.650;9.612;2023-04-28T20:17:08;99167.44;;;17.41;47.10
69796;BME280;57073;45.650;9.612;2023-04-28T20:22:09;99156.56;;;17.36;46.24
69796;BME280;57073;45.650;9.612;2023-04-28T20:27:09;99158.34;;;17.17;47.92
69796;BME280;57073;45.650;9.612;2023-04-28T20:32:11;99173.59;;;17.18;47.84
69796;BME280;57073;45.650;9.612;2023-04-28T20:37:11;99182.88;;;17.17;46.78
69796;BME280;57073;45.650;9.612;2023-04-28T20:42:12;99178.13;;;16.93;47.87
69796;BME280;57073;45.650;9.612;2023-04-28T20:47:12;99189.56;;;16.90;47.65
69796;BME280;57073;45.650;9.612;2023-04-28T20:52:13;99193.16;;;16.85;46.96
69796;BME280;57073;45.650;9.612;2023-04-28T20:57:13;99201.38;;;16.75;47.28
69796;BME280;57073;45.650;9.612;2023-04-28T21:02:13;99196.44;;;16.77;47.09
69796;BME280;57073;45.650;9.612;2023-04-28T21:07:14;99183.69;;;16.67;48.10
69796;BME280;57073;45.650;9.612;2023-04-28T21:12:14;99194.06;;;16.55;49.08
69796;BME280;57073;45.650;9.612;2023-04-28T21:17:15;99198.13;;;16.58;49.44
69796;BME280;57073;45.650;9.612;2023-04-28T21:22:16;99199.81;;;16.48;48.82
69796;BME280;57073;45.650;9.612;2023-04-28T21:27:16;99200.66;;;16.39;50.65
69796;BME280;57073;45.650;9.612;2023-04-28T21:32:17;99193.13;;;16.20;51.20
69796;BME280;57073;45.650;9.612;2023-04-28T21:37:17;99194.97;;;16.30;50.05
69796;BME280;57073;45.650;9.612;2023-04-28T21:42:17;99197.19;;;16.23;51.59
69796;BME280;57073;45.650;9.612;2023-04-28T21:47:18;99203.75;;;16.17;51.12
69796;BME280;57073;45.650;9.612;2023-04-28T21:52:18;99211.84;;;16.27;49.82
69796;BME280;57073;45.650;9.612;2023-04-28T21:57:19;99202.63;;;16.12;52.17
69796;BME280;57073;45.650;9.612;2023-04-28T22:02:19;99203.72;;;16.22;51.52
69796;BME280;57073;45.650;9.612;2023-04-28T22:07:19;99201.81;;;16.22;51.13
69796;BME280;57073;45.650;9.612;2023-04-28T22:12:20;99210.50;;;16.29;52.10
69796;BME280;57073;45.650;9.612;2023-04-28T22:17:20;99208.06;;;16.28;50.26
69796;BME280;57073;45.650;9.612;2023-04-28T22:22:21;99204.53;;;16.27;50.65
69796;BME280;57073;45.650;9.612;2023-04-28T22:27:21;99209.72;;;16.13;51.19
69796;BME280;57073;45.650;9.612;2023-04-28T22:32:22;99223.38;;;15.93;50.72
69796;BME280;57073;45.650;9.612;2023-04-28T22:37:22;99225.28;;;15.87;49.21
69796;BME280;57073;45.650;9.612;2023-04-28T22:42:22;99209.50;;;15.84;49.85
69796;BME280;57073;45.650;9.612;2023-04-28T22:47:23;99200.78;;;15.77;50.77
69796;BME280;57073;45.650;9.612;2023-04-28T22:52:24;99202.38;;;15.78;50.53
69796;BME280;57073;45.650;9.612;2023-04-28T22:57:25;99201.31;;;15.79;49.89
69796;BME280;57073;45.650;9.612;2023-04-28T23:02:25;99201.06;;;15.86;51.09
69796;BME280;57073;45.650;9.612;2023-04-28T23:07:26;99199.69;;;15.93;51.11
69796;BME280;57073;45.650;9.612;2023-04-28T23:12:27;99190.72;;;15.98;52.09
69796;BME280;57073;45.650;9.612;2023-04-28T23:17:27;99182.31;;;15.89;54.44
69796;BME280;57073;45.650;9.612;2023-04-28T23:22:28;99159.72;;;15.89;53.51
69796;BME280;57073;45.650;9.612;2023-04-28T23:27:28;99158.66;;;15.85;53.88
69796;BME280;57073;45.650;9.612;2023-04-28T23:32:28;99147.50;;;15.91;53.36
69796;BME280;57073;45.650;9.612;2023-04-28T23:37:29;99158.63;;;15.95;53.88
69796;BME280;57073;45.650;9.612;2023-04-28T23:42:29;99148.03;;;15.88;54.97
69796;BME280;57073;45.650;9.612;2023-04-28T23:47:29;99146.44;;;15.82;54.28
69796;BME280;57073;45.650;9.612;2023-04-28T23:52:30;99149.13;;;15.72;56.07
69796;BME280;57073;45.650;9.612;2023-04-28T23:57:31;99139.31;;;15.76;54.90
